sensor_id;sensor_type;location;lat;lon;timestamp;P1;durP1;ratioP1;P2;durP2;ratioP2
32501;SDS011;18952;52.516;13.460;2023-07-30T00:02:18;7.97;;;7.18;;
32501;SDS011;18952;52.516;13.460;2023-07-30T00:04:45;7.80;;;7.05;;
32501;SDS011;18952;52.516;13.460;2023-07-30T00:07:12;10.73;;;6.30;;
32501;SDS011;18952;52.516;13.460;2023-07-30T00:09:39;9.15;;;6.50;;
32501;SDS011;18952;52.516;13.460;2023-07-30T00:12:07;9.27;;;6.63;;
32501;SDS011;18952;52.516;13.460;2023-07-30T00:14:34;7.50;;;6.32;;
32501;SDS011;18952;52.516;13.460;2023-07-30T00:17:01;9.88;;;6.22;;
32501;SDS011;18952;52.516;13.460;2023-07-30T00:19:28;9.00;;;6.20;;
32501;SDS011;18952;52.516;13.460;2023-07-30T00:21:55;8.52;;;6.28;;
32501;SDS011;18952;52.516;13.460;2023-07-30T00:24:22;8.32;;;6.18;;
32501;SDS011;18952;52.516;13.460;2023-07-30T00:26:49;7.75;;;5.82;;
32501;SDS011;18952;52.516;13.460;2023-07-30T00:29:16;6.90;;;6.10;;
32501;SDS011;18952;52.516;13.460;2023-07-30T00:31:43;8.32;;;5.95;;
32501;SDS011;18952;52.516;13.460;2023-07-30T00:34:09;7.25;;;6.18;;
32501;SDS011;18952;52.516;13.460;2023-07-30T00:36:36;7.18;;;5.88;;
32501;SDS011;18952;52.516;13.460;2023-07-30T00:39:03;7.70;;;5.45;;
32501;SDS011;18952;52.516;13.460;2023-07-30T00:41:30;7.45;;;5.90;;
32501;SDS011;18952;52.516;13.460;2023-07-30T00:43:57;6.75;;;4.90;;
32501;SDS011;18952;52.516;13.460;2023-07-30T00:46:24;5.78;;;5.07;;
32501;SDS011;18952;52.516;13.460;2023-07-30T00:48:51;6.30;;;4.65;;
32501;SDS011;18952;52.516;13.460;2023-07-30T00:51:17;6.53;;;4.65;;
32501;SDS011;18952;52.516;13.460;2023-07-30T00:53:46;4.70;;;4.05;;
32501;SDS011;18952;52.516;13.460;2023-07-30T00:56:13;5.57;;;4.47;;
32501;SDS011;18952;52.516;13.460;2023-07-30T00:58:41;5.32;;;4.00;;
32501;SDS011;18952;52.516;13.460;2023-07-30T01:01:08;9.77;;;4.28;;
32501;SDS011;18952;52.516;13.460;2023-07-30T01:03:35;5.43;;;4.07;;
32501;SDS011;18952;52.516;13.460;2023-07-30T01:06:03;5.22;;;4.15;;
32501;SDS011;18952;52.516;13.460;2023-07-30T01:08:30;9.48;;;4.22;;
32501;SDS011;18952;52.516;13.460;2023-07-30T01:10:57;5.60;;;4.40;;
32501;SDS011;18952;52.516;13.460;2023-07-30T01:13:24;6.63;;;4.75;;
32501;SDS011;18952;52.516;13.460;2023-07-30T01:15:53;9.45;;;4.90;;
32501;SDS011;18952;52.516;13.460;2023-07-30T01:18:20;6.38;;;4.20;;
32501;SDS011;18952;52.516;13.460;2023-07-30T01:20:46;6.72;;;4.18;;
32501;SDS011;18952;52.516;13.460;2023-07-30T01:23:13;5.80;;;4.43;;
32501;SDS011;18952;52.516;13.460;2023-07-30T01:25:40;5.72;;;5.05;;
32501;SDS011;18952;52.516;13.460;2023-07-30T01:28:10;8.55;;;5.25;;
32501;SDS011;18952;52.516;13.460;2023-07-30T01:30:41;7.60;;;4.60;;
32501;SDS011;18952;52.516;13.460;2023-07-30T01:33:10;4.97;;;4.13;;
32501;SDS011;18952;52.516;13.460;2023-07-30T01:35:37;5.60;;;4.57;;
32501;SDS011;18952;52.516;13.460;2023-07-30T01:38:06;8.90;;;4.40;;
32501;SDS011;18952;52.516;13.460;2023-07-30T01:40:34;6.88;;;4.28;;
32501;SDS011;18952;52.516;13.460;2023-07-30T01:43:01;5.47;;;4.50;;
32501;SDS011;18952;52.516;13.460;2023-07-30T01:45:27;5.22;;;4.70;;
32501;SDS011;18952;52.516;13.460;2023-07-30T01:47:54;5.00;;;4.50;;
32501;SDS011;18952;52.516;13.460;2023-07-30T01:50:21;5.15;;;4.40;;
32501;SDS011;18952;52.516;13.460;2023-07-30T01:52:48;6.15;;;5.20;;
32501;SDS011;18952;52.516;13.460;2023-07-30T01:55:15;6.70;;;5.50;;
32501;SDS011;18952;52.516;13.460;2023-07-30T01:57:41;7.57;;;4.82;;
32501;SDS011;18952;52.516;13.460;2023-07-30T02:00:08;6.38;;;4.55;;
32501;SDS011;18952;52.516;13.460;2023-07-30T02:02:35;6.70;;;4.85;;
32501;SDS011;18952;52.516;13.460;2023-07-30T02:05:02;5.57;;;4.85;;
32501;SDS011;18952;52.516;13.460;2023-07-30T02:07:29;6.78;;;5.20;;
32501;SDS011;18952;52.516;13.460;2023-07-30T02:09:56;8.68;;;5.40;;
32501;SDS011;18952;52.516;13.460;2023-07-30T02:12:23;6.43;;;5.20;;
32501;SDS011;18952;52.516;13.460;2023-07-30T02:14:50;6.45;;;5.72;;
32501;SDS011;18952;52.516;13.460;2023-07-30T02:17:17;7.10;;;5.53;;
32501;SDS011;18952;52.516;13.460;2023-07-30T02:19:43;6.90;;;5.43;;
32501;SDS011;18952;52.516;13.460;2023-07-30T02:22:10;13.02;;;5.72;;
32501;SDS011;18952;52.516;13.460;2023-07-30T02:24:37;7.65;;;5.65;;
32501;SDS011;18952;52.516;13.460;2023-07-30T02:27:04;7.65;;;5.63;;
32501;SDS011;18952;52.516;13.460;2023-07-30T02:29:31;9.88;;;6.40;;
32501;SDS011;18952;52.516;13.460;2023-07-30T02:31:58;6.78;;;5.65;;
32501;SDS011;18952;52.516;13.460;2023-07-30T02:34:25;8.80;;;6.30;;
32501;SDS011;18952;52.516;13.460;2023-07-30T02:36:51;9.45;;;6.45;;
32501;SDS011;18952;52.516;13.460;2023-07-30T02:39:18;7.75;;;6.40;;
32501;SDS011;18952;52.516;13.460;2023-07-30T02:41:45;12.70;;;7.25;;
32501;SDS011;18952;52.516;13.460;2023-07-30T02:44:11;7.85;;;6.88;;
32501;SDS011;18952;52.516;13.460;2023-07-30T02:46:38;11.27;;;7.28;;
32501;SDS011;18952;52.516;13.460;2023-07-30T02:49:05;7.38;;;6.68;;
32501;SDS011;18952;52.516;13.460;2023-07-30T02:51:32;7.82;;;7.03;;
32501;SDS011;18952;52.516;13.460;2023-07-30T02:53:58;8.93;;;7.07;;
32501;SDS011;18952;52.516;13.460;2023-07-30T02:56:30;7.63;;;6.43;;
32501;SDS011;18952;52.516;13.460;2023-07-30T02:58:58;7.00;;;6.30;;
32501;SDS011;18952;52.516;13.460;2023-07-30T03:01:25;7.68;;;6.15;;
32501;SDS011;18952;52.516;13.460;2023-07-30T03:03:52;8.00;;;6.25;;
32501;SDS011;18952;52.516;13.460;2023-07-30T03:06:19;8.68;;;5.90;;
32501;SDS011;18952;52.516;13.460;2023-07-30T03:08:46;12.13;;;6.78;;
32501;SDS011;18952;52.516;13.460;2023-07-30T03:11:13;6.93;;;6.20;;
32501;SDS011;18952;52.516;13.460;2023-07-30T03:13:40;8.73;;;6.05;;
32501;SDS011;18952;52.516;13.460;2023-07-30T03:16:06;8.88;;;6.68;;
32501;SDS011;18952;52.516;13.460;2023-07-30T03:18:33;6.72;;;6.05;;
32501;SDS011;18952;52.516;13.460;2023-07-30T03:21:00;7.20;;;6.18;;
32501;SDS011;18952;52.516;13.460;2023-07-30T03:23:27;9.32;;;6.32;;
32501;SDS011;18952;52.516;13.460;2023-07-30T03:25:54;7.40;;;6.63;;
32501;SDS011;18952;52.516;13.460;2023-07-30T03:28:21;8.90;;;6.65;;
32501;SDS011;18952;52.516;13.460;2023-07-30T03:30:48;8.43;;;6.40;;
32501;SDS011;18952;52.516;13.460;2023-07-30T03:33:15;11.85;;;7.82;;
32501;SDS011;18952;52.516;13.460;2023-07-30T03:35:42;9.90;;;6.57;;
32501;SDS011;18952;52.516;13.460;2023-07-30T03:38:09;8.15;;;7.38;;
32501;SDS011;18952;52.516;13.460;2023-07-30T03:40:36;6.93;;;6.20;;
32501;SDS011;18952;52.516;13.460;2023-07-30T03:43:02;8.60;;;5.90;;
32501;SDS011;18952;52.516;13.460;2023-07-30T03:45:29;8.55;;;7.03;;
32501;SDS011;18952;52.516;13.460;2023-07-30T03:47:56;8.75;;;7.30;;
32501;SDS011;18952;52.516;13.460;2023-07-30T03:50:23;8.13;;;6.90;;
32501;SDS011;18952;52.516;13.460;2023-07-30T03:52:50;7.90;;;6.60;;
32501;SDS011;18952;52.516;13.460;2023-07-30T03:55:16;10.02;;;7.05;;
32501;SDS011;18952;52.516;13.460;2023-07-30T03:57:43;7.43;;;6.68;;
32501;SDS011;18952;52.516;13.460;2023-07-30T04:00:10;9.30;;;6.70;;
32501;SDS011;18952;52.516;13.460;2023-07-30T04:02:37;9.35;;;7.20;;
32501;SDS011;18952;52.516;13.460;2023-07-30T04:05:04;8.50;;;6.80;;
32501;SDS011;18952;52.516;13.460;2023-07-30T04:07:30;7.82;;;6.57;;
32501;SDS011;18952;52.516;13.460;2023-07-30T04:09:57;8.70;;;6.95;;
32501;SDS011;18952;52.516;13.460;2023-07-30T04:12:24;7.65;;;7.05;;
32501;SDS011;18952;52.516;13.460;2023-07-30T04:14:51;11.50;;;7.57;;
32501;SDS011;18952;52.516;13.460;2023-07-30T04:17:17;7.93;;;6.75;;
32501;SDS011;18952;52.516;13.460;2023-07-30T04:19:44;9.30;;;6.82;;
32501;SDS011;18952;52.516;13.460;2023-07-30T04:22:11;7.47;;;6.78;;
32501;SDS011;18952;52.516;13.460;2023-07-30T04:24:38;7.55;;;6.47;;
32501;SDS011;18952;52.516;13.460;2023-07-30T04:27:05;6.75;;;6.05;;
32501;SDS011;18952;52.516;13.460;2023-07-30T04:29:31;6.50;;;5.85;;
32501;SDS011;18952;52.516;13.460;2023-07-30T04:31:58;6.60;;;5.78;;
32501;SDS011;18952;52.516;13.460;2023-07-30T04:34:25;6.78;;;5.90;;
32501;SDS011;18952;52.516;13.460;2023-07-30T04:36:52;7.15;;;6.45;;
32501;SDS011;18952;52.516;13.460;2023-07-30T04:39:19;8.85;;;6.30;;
32501;SDS011;18952;52.516;13.460;2023-07-30T04:41:46;7.18;;;6.30;;
32501;SDS011;18952;52.516;13.460;2023-07-30T04:44:13;6.38;;;5.78;;
32501;SDS011;18952;52.516;13.460;2023-07-30T04:46:39;10.15;;;6.43;;
32501;SDS011;18952;52.516;13.460;2023-07-30T04:49:06;10.30;;;6.38;;
32501;SDS011;18952;52.516;13.460;2023-07-30T04:51:33;6.60;;;6.00;;
32501;SDS011;18952;52.516;13.460;2023-07-30T04:54:00;6.30;;;5.70;;
32501;SDS011;18952;52.516;13.460;2023-07-30T04:56:26;7.13;;;6.53;;
32501;SDS011;18952;52.516;13.460;2023-07-30T04:58:53;6.47;;;5.88;;
32501;SDS011;18952;52.516;13.460;2023-07-30T05:01:20;9.13;;;6.95;;
32501;SDS011;18952;52.516;13.460;2023-07-30T05:03:47;10.48;;;6.82;;
32501;SDS011;18952;52.516;13.460;2023-07-30T05:06:14;6.93;;;6.22;;
32501;SDS011;18952;52.516;13.460;2023-07-30T05:08:41;10.32;;;6.07;;
32501;SDS011;18952;52.516;13.460;2023-07-30T05:11:08;8.35;;;6.40;;
32501;SDS011;18952;52.516;13.460;2023-07-30T05:13:35;6.57;;;5.97;;
32501;SDS011;18952;52.516;13.460;2023-07-30T05:16:02;6.28;;;5.68;;
32501;SDS011;18952;52.516;13.460;2023-07-30T05:18:29;13.60;;;5.88;;
32501;SDS011;18952;52.516;13.460;2023-07-30T05:20:55;6.10;;;5.43;;
32501;SDS011;18952;52.516;13.460;2023-07-30T05:23:22;10.98;;;5.65;;
32501;SDS011;18952;52.516;13.460;2023-07-30T05:25:49;7.32;;;5.38;;
32501;SDS011;18952;52.516;13.460;2023-07-30T05:28:16;5.63;;;5.13;;
32501;SDS011;18952;52.516;13.460;2023-07-30T05:30:43;6.25;;;5.20;;
32501;SDS011;18952;52.516;13.460;2023-07-30T05:33:10;5.20;;;4.70;;
32501;SDS011;18952;52.516;13.460;2023-07-30T05:35:38;6.93;;;4.50;;
32501;SDS011;18952;52.516;13.460;2023-07-30T05:38:04;5.18;;;4.47;;
32501;SDS011;18952;52.516;13.460;2023-07-30T05:40:31;6.22;;;4.47;;
32501;SDS011;18952;52.516;13.460;2023-07-30T05:42:58;5.75;;;4.43;;
32501;SDS011;18952;52.516;13.460;2023-07-30T05:45:25;4.85;;;4.30;;
32501;SDS011;18952;52.516;13.460;2023-07-30T05:47:51;6.28;;;4.68;;
32501;SDS011;18952;52.516;13.460;2023-07-30T05:50:18;4.05;;;3.70;;
32501;SDS011;18952;52.516;13.460;2023-07-30T05:52:45;4.30;;;3.90;;
32501;SDS011;18952;52.516;13.460;2023-07-30T05:55:12;5.72;;;3.88;;
32501;SDS011;18952;52.516;13.460;2023-07-30T05:57:39;5.72;;;3.60;;
32501;SDS011;18952;52.516;13.460;2023-07-30T06:00:06;3.88;;;3.55;;
32501;SDS011;18952;52.516;13.460;2023-07-30T06:02:33;6.03;;;3.58;;
32501;SDS011;18952;52.516;13.460;2023-07-30T06:05:00;5.15;;;3.70;;
32501;SDS011;18952;52.516;13.460;2023-07-30T06:07:27;8.50;;;3.22;;
32501;SDS011;18952;52.516;13.460;2023-07-30T06:09:53;3.67;;;3.38;;
32501;SDS011;18952;52.516;13.460;2023-07-30T06:12:20;4.28;;;3.33;;
32501;SDS011;18952;52.516;13.460;2023-07-30T06:14:47;4.40;;;3.47;;
32501;SDS011;18952;52.516;13.460;2023-07-30T06:17:14;4.03;;;3.22;;
32501;SDS011;18952;52.516;13.460;2023-07-30T06:19:40;4.50;;;3.35;;
32501;SDS011;18952;52.516;13.460;2023-07-30T06:22:07;4.45;;;3.70;;
32501;SDS011;18952;52.516;13.460;2023-07-30T06:24:34;3.60;;;3.30;;
32501;SDS011;18952;52.516;13.460;2023-07-30T06:27:01;4.43;;;3.10;;
32501;SDS011;18952;52.516;13.460;2023-07-30T06:29:28;4.72;;;3.10;;
32501;SDS011;18952;52.516;13.460;2023-07-30T06:31:54;3.53;;;2.88;;
32501;SDS011;18952;52.516;13.460;2023-07-30T06:34:21;5.47;;;2.53;;
32501;SDS011;18952;52.516;13.460;2023-07-30T06:36:48;3.70;;;2.83;;
32501;SDS011;18952;52.516;13.460;2023-07-30T06:39:15;3.40;;;2.78;;
32501;SDS011;18952;52.516;13.460;2023-07-30T06:41:41;4.00;;;2.65;;
32501;SDS011;18952;52.516;13.460;2023-07-30T06:44:08;3.53;;;2.90;;
32501;SDS011;18952;52.516;13.460;2023-07-30T06:46:35;4.32;;;2.70;;
32501;SDS011;18952;52.516;13.460;2023-07-30T06:49:02;6.00;;;2.50;;
32501;SDS011;18952;52.516;13.460;2023-07-30T06:51:29;5.70;;;2.75;;
32501;SDS011;18952;52.516;13.460;2023-07-30T06:53:56;2.72;;;2.28;;
32501;SDS011;18952;52.516;13.460;2023-07-30T06:56:23;3.03;;;2.42;;
32501;SDS011;18952;52.516;13.460;2023-07-30T06:58:49;2.88;;;2.53;;
32501;SDS011;18952;52.516;13.460;2023-07-30T07:01:16;3.38;;;2.45;;
32501;SDS011;18952;52.516;13.460;2023-07-30T07:03:43;3.85;;;2.28;;
32501;SDS011;18952;52.516;13.460;2023-07-30T07:06:10;2.75;;;2.08;;
32501;SDS011;18952;52.516;13.460;2023-07-30T07:08:37;5.15;;;2.92;;
32501;SDS011;18952;52.516;13.460;2023-07-30T07:11:03;2.50;;;2.28;;
32501;SDS011;18952;52.516;13.460;2023-07-30T07:13:30;3.20;;;2.88;;
32501;SDS011;18952;52.516;13.460;2023-07-30T07:15:57;3.42;;;2.72;;
32501;SDS011;18952;52.516;13.460;2023-07-30T07:18:24;3.47;;;2.80;;
32501;SDS011;18952;52.516;13.460;2023-07-30T07:20:50;5.57;;;2.60;;
32501;SDS011;18952;52.516;13.460;2023-07-30T07:23:17;3.72;;;2.75;;
32501;SDS011;18952;52.516;13.460;2023-07-30T07:25:44;4.32;;;2.97;;
32501;SDS011;18952;52.516;13.460;2023-07-30T07:28:11;4.07;;;2.97;;
32501;SDS011;18952;52.516;13.460;2023-07-30T07:30:38;3.50;;;2.92;;
32501;SDS011;18952;52.516;13.460;2023-07-30T07:33:04;6.38;;;3.03;;
32501;SDS011;18952;52.516;13.460;2023-07-30T07:35:31;5.25;;;3.10;;
32501;SDS011;18952;52.516;13.460;2023-07-30T07:37:58;4.07;;;3.05;;
32501;SDS011;18952;52.516;13.460;2023-07-30T07:40:25;3.63;;;3.00;;
32501;SDS011;18952;52.516;13.460;2023-07-30T07:42:52;3.75;;;3.10;;
32501;SDS011;18952;52.516;13.460;2023-07-30T07:45:21;3.45;;;2.90;;
32501;SDS011;18952;52.516;13.460;2023-07-30T07:47:48;5.32;;;3.72;;
32501;SDS011;18952;52.516;13.460;2023-07-30T07:50:14;4.20;;;3.50;;
32501;SDS011;18952;52.516;13.460;2023-07-30T07:52:41;4.97;;;3.35;;
32501;SDS011;18952;52.516;13.460;2023-07-30T07:55:08;6.78;;;3.30;;
32501;SDS011;18952;52.516;13.460;2023-07-30T07:57:35;4.85;;;3.45;;
32501;SDS011;18952;52.516;13.460;2023-07-30T08:00:04;6.50;;;3.10;;
32501;SDS011;18952;52.516;13.460;2023-07-30T08:02:32;4.40;;;3.35;;
32501;SDS011;18952;52.516;13.460;2023-07-30T08:04:58;5.78;;;3.85;;
32501;SDS011;18952;52.516;13.460;2023-07-30T08:07:25;5.60;;;3.10;;
32501;SDS011;18952;52.516;13.460;2023-07-30T08:09:52;7.28;;;3.20;;
32501;SDS011;18952;52.516;13.460;2023-07-30T08:12:19;6.22;;;3.50;;
32501;SDS011;18952;52.516;13.460;2023-07-30T08:14:46;4.00;;;2.70;;
32501;SDS011;18952;52.516;13.460;2023-07-30T08:17:13;4.60;;;3.35;;
32501;SDS011;18952;52.516;13.460;2023-07-30T08:19:40;12.13;;;2.70;;
32501;SDS011;18952;52.516;13.460;2023-07-30T08:22:06;3.40;;;3.10;;
32501;SDS011;18952;52.516;13.460;2023-07-30T08:24:33;3.53;;;2.85;;
32501;SDS011;18952;52.516;13.460;2023-07-30T08:27:00;3.70;;;2.92;;
32501;SDS011;18952;52.516;13.460;2023-07-30T08:29:27;3.65;;;2.75;;
32501;SDS011;18952;52.516;13.460;2023-07-30T08:31:53;3.90;;;3.00;;
32501;SDS011;18952;52.516;13.460;2023-07-30T08:34:21;3.58;;;2.80;;
32501;SDS011;18952;52.516;13.460;2023-07-30T08:36:48;5.85;;;2.78;;
32501;SDS011;18952;52.516;13.460;2023-07-30T08:39:15;4.07;;;2.80;;
32501;SDS011;18952;52.516;13.460;2023-07-30T08:41:42;5.50;;;2.78;;
32501;SDS011;18952;52.516;13.460;2023-07-30T08:44:09;6.57;;;2.53;;
32501;SDS011;18952;52.516;13.460;2023-07-30T08:46:36;6.55;;;2.97;;
32501;SDS011;18952;52.516;13.460;2023-07-30T08:49:02;5.68;;;2.60;;
32501;SDS011;18952;52.516;13.460;2023-07-30T08:51:29;3.50;;;2.70;;
32501;SDS011;18952;52.516;13.460;2023-07-30T08:53:58;4.22;;;2.60;;
32501;SDS011;18952;52.516;13.460;2023-07-30T08:56:28;5.50;;;2.33;;
32501;SDS011;18952;52.516;13.460;2023-07-30T08:58:56;4.15;;;2.40;;
32501;SDS011;18952;52.516;13.460;2023-07-30T09:01:26;6.65;;;2.38;;
32501;SDS011;18952;52.516;13.460;2023-07-30T09:03:57;5.45;;;2.80;;
32501;SDS011;18952;52.516;13.460;2023-07-30T09:06:25;5.05;;;2.50;;
32501;SDS011;18952;52.516;13.460;2023-07-30T09:08:52;3.65;;;2.60;;
32501;SDS011;18952;52.516;13.460;2023-07-30T09:11:19;7.78;;;2.97;;
32501;SDS011;18952;52.516;13.460;2023-07-30T09:13:46;4.57;;;2.45;;
32501;SDS011;18952;52.516;13.460;2023-07-30T09:16:14;6.15;;;2.53;;
32501;SDS011;18952;52.516;13.460;2023-07-30T09:18:42;3.40;;;2.20;;
32501;SDS011;18952;52.516;13.460;2023-07-30T09:21:15;4.53;;;2.20;;
32501;SDS011;18952;52.516;13.460;2023-07-30T09:23:42;4.60;;;2.17;;
32501;SDS011;18952;52.516;13.460;2023-07-30T09:26:11;4.78;;;2.20;;
32501;SDS011;18952;52.516;13.460;2023-07-30T09:28:41;3.88;;;2.50;;
32501;SDS011;18952;52.516;13.460;2023-07-30T09:31:08;3.42;;;2.08;;
32501;SDS011;18952;52.516;13.460;2023-07-30T09:33:41;3.95;;;2.25;;
32501;SDS011;18952;52.516;13.460;2023-07-30T09:36:08;4.28;;;2.30;;
32501;SDS011;18952;52.516;13.460;2023-07-30T09:38:39;6.60;;;2.80;;
32501;SDS011;18952;52.516;13.460;2023-07-30T09:41:06;3.88;;;1.90;;
32501;SDS011;18952;52.516;13.460;2023-07-30T09:43:33;5.45;;;2.63;;
32501;SDS011;18952;52.516;13.460;2023-07-30T09:46:04;9.25;;;2.30;;
32501;SDS011;18952;52.516;13.460;2023-07-30T09:48:33;3.28;;;2.08;;
32501;SDS011;18952;52.516;13.460;2023-07-30T09:51:01;4.10;;;2.15;;
32501;SDS011;18952;52.516;13.460;2023-07-30T09:53:32;4.50;;;2.38;;
32501;SDS011;18952;52.516;13.460;2023-07-30T09:56:03;6.43;;;4.00;;
32501;SDS011;18952;52.516;13.460;2023-07-30T09:58:31;7.07;;;2.38;;
32501;SDS011;18952;52.516;13.460;2023-07-30T10:00:58;5.03;;;2.38;;
32501;SDS011;18952;52.516;13.460;2023-07-30T10:03:26;4.32;;;2.20;;
32501;SDS011;18952;52.516;13.460;2023-07-30T10:06:03;4.07;;;2.00;;
32501;SDS011;18952;52.516;13.460;2023-07-30T10:08:34;3.35;;;2.20;;
32501;SDS011;18952;52.516;13.460;2023-07-30T10:11:05;2.90;;;1.92;;
32501;SDS011;18952;52.516;13.460;2023-07-30T10:13:35;5.30;;;2.20;;
32501;SDS011;18952;52.516;13.460;2023-07-30T10:16:03;5.20;;;2.38;;
32501;SDS011;18952;52.516;13.460;2023-07-30T10:18:39;4.60;;;2.17;;
32501;SDS011;18952;52.516;13.460;2023-07-30T10:21:07;3.53;;;2.13;;
32501;SDS011;18952;52.516;13.460;2023-07-30T10:23:35;2.33;;;1.70;;
32501;SDS011;18952;52.516;13.460;2023-07-30T10:26:11;8.15;;;1.90;;
32501;SDS011;18952;52.516;13.460;2023-07-30T10:28:38;3.33;;;2.13;;
32501;SDS011;18952;52.516;13.460;2023-07-30T10:31:05;3.55;;;2.30;;
32501;SDS011;18952;52.516;13.460;2023-07-30T10:36:13;5.28;;;2.80;;
32501;SDS011;18952;52.516;13.460;2023-07-30T10:38:45;4.93;;;2.42;;
32501;SDS011;18952;52.516;13.460;2023-07-30T10:41:13;4.78;;;2.38;;
32501;SDS011;18952;52.516;13.460;2023-07-30T10:43:42;3.42;;;2.00;;
32501;SDS011;18952;52.516;13.460;2023-07-30T10:46:15;4.28;;;2.53;;
32501;SDS011;18952;52.516;13.460;2023-07-30T10:48:43;5.93;;;2.00;;
32501;SDS011;18952;52.516;13.460;2023-07-30T10:51:13;5.45;;;2.10;;
32501;SDS011;18952;52.516;13.460;2023-07-30T10:53:44;3.30;;;1.80;;
32501;SDS011;18952;52.516;13.460;2023-07-30T10:56:12;3.17;;;2.10;;
32501;SDS011;18952;52.516;13.460;2023-07-30T10:58:41;2.90;;;2.10;;
32501;SDS011;18952;52.516;13.460;2023-07-30T11:01:09;3.90;;;2.65;;
32501;SDS011;18952;52.516;13.460;2023-07-30T11:03:36;3.33;;;1.80;;
32501;SDS011;18952;52.516;13.460;2023-07-30T11:06:03;3.63;;;2.30;;
32501;SDS011;18952;52.516;13.460;2023-07-30T11:08:42;11.55;;;2.22;;
32501;SDS011;18952;52.516;13.460;2023-07-30T11:11:09;3.40;;;1.90;;
32501;SDS011;18952;52.516;13.460;2023-07-30T11:13:37;3.53;;;2.20;;
32501;SDS011;18952;52.516;13.460;2023-07-30T11:16:05;5.57;;;2.25;;
32501;SDS011;18952;52.516;13.460;2023-07-30T11:18:34;4.72;;;2.28;;
32501;SDS011;18952;52.516;13.460;2023-07-30T11:21:02;3.85;;;2.30;;
32501;SDS011;18952;52.516;13.460;2023-07-30T11:23:34;9.02;;;2.58;;
32501;SDS011;18952;52.516;13.460;2023-07-30T11:26:02;9.75;;;2.53;;
32501;SDS011;18952;52.516;13.460;2023-07-30T11:28:31;5.80;;;2.22;;
32501;SDS011;18952;52.516;13.460;2023-07-30T11:31:06;4.03;;;2.22;;
32501;SDS011;18952;52.516;13.460;2023-07-30T11:33:41;5.43;;;2.33;;
32501;SDS011;18952;52.516;13.460;2023-07-30T11:36:17;4.05;;;2.10;;
32501;SDS011;18952;52.516;13.460;2023-07-30T11:38:46;4.30;;;1.95;;
32501;SDS011;18952;52.516;13.460;2023-07-30T11:41:14;3.20;;;1.90;;
32501;SDS011;18952;52.516;13.460;2023-07-30T11:43:42;3.63;;;1.90;;
32501;SDS011;18952;52.516;13.460;2023-07-30T11:46:11;4.18;;;1.77;;
32501;SDS011;18952;52.516;13.460;2023-07-30T11:48:39;3.40;;;2.08;;
32501;SDS011;18952;52.516;13.460;2023-07-30T11:51:17;4.88;;;2.00;;
32501;SDS011;18952;52.516;13.460;2023-07-30T11:53:50;4.75;;;2.33;;
32501;SDS011;18952;52.516;13.460;2023-07-30T11:56:21;5.07;;;2.47;;
32501;SDS011;18952;52.516;13.460;2023-07-30T11:58:54;3.42;;;1.98;;
32501;SDS011;18952;52.516;13.460;2023-07-30T12:01:26;2.92;;;2.00;;
32501;SDS011;18952;52.516;13.460;2023-07-30T12:03:59;4.55;;;2.20;;
32501;SDS011;18952;52.516;13.460;2023-07-30T12:06:40;5.93;;;2.10;;
32501;SDS011;18952;52.516;13.460;2023-07-30T12:09:18;7.00;;;2.30;;
32501;SDS011;18952;52.516;13.460;2023-07-30T12:11:58;6.25;;;2.17;;
32501;SDS011;18952;52.516;13.460;2023-07-30T12:14:27;5.00;;;2.38;;
32501;SDS011;18952;52.516;13.460;2023-07-30T12:16:59;4.80;;;2.42;;
32501;SDS011;18952;52.516;13.460;2023-07-30T12:19:26;5.03;;;2.10;;
32501;SDS011;18952;52.516;13.460;2023-07-30T12:21:53;5.60;;;2.35;;
32501;SDS011;18952;52.516;13.460;2023-07-30T12:24:20;4.65;;;1.90;;
32501;SDS011;18952;52.516;13.460;2023-07-30T12:26:47;5.30;;;2.20;;
32501;SDS011;18952;52.516;13.460;2023-07-30T12:29:14;4.70;;;1.90;;
32501;SDS011;18952;52.516;13.460;2023-07-30T12:31:41;6.18;;;2.20;;
32501;SDS011;18952;52.516;13.460;2023-07-30T12:34:08;5.45;;;2.20;;
32501;SDS011;18952;52.516;13.460;2023-07-30T12:36:35;3.58;;;1.60;;
32501;SDS011;18952;52.516;13.460;2023-07-30T12:39:02;6.40;;;2.00;;
32501;SDS011;18952;52.516;13.460;2023-07-30T12:41:29;9.77;;;2.55;;
32501;SDS011;18952;52.516;13.460;2023-07-30T12:43:56;3.17;;;1.83;;
32501;SDS011;18952;52.516;13.460;2023-07-30T12:46:23;4.97;;;2.20;;
32501;SDS011;18952;52.516;13.460;2023-07-30T12:48:51;4.88;;;2.35;;
32501;SDS011;18952;52.516;13.460;2023-07-30T12:51:18;4.55;;;2.35;;
32501;SDS011;18952;52.516;13.460;2023-07-30T12:53:45;4.05;;;2.22;;
32501;SDS011;18952;52.516;13.460;2023-07-30T12:56:11;5.70;;;2.30;;
32501;SDS011;18952;52.516;13.460;2023-07-30T12:58:38;4.78;;;2.28;;
32501;SDS011;18952;52.516;13.460;2023-07-30T13:01:05;5.40;;;2.05;;
32501;SDS011;18952;52.516;13.460;2023-07-30T13:03:32;5.53;;;2.30;;
32501;SDS011;18952;52.516;13.460;2023-07-30T13:05:59;5.90;;;2.70;;
32501;SDS011;18952;52.516;13.460;2023-07-30T13:08:26;5.32;;;2.20;;
32501;SDS011;18952;52.516;13.460;2023-07-30T13:10:53;8.90;;;2.40;;
32501;SDS011;18952;52.516;13.460;2023-07-30T13:13:20;4.32;;;2.50;;
32501;SDS011;18952;52.516;13.460;2023-07-30T13:15:47;5.15;;;2.30;;
32501;SDS011;18952;52.516;13.460;2023-07-30T13:18:13;5.20;;;2.33;;
32501;SDS011;18952;52.516;13.460;2023-07-30T13:20:40;5.88;;;2.40;;
32501;SDS011;18952;52.516;13.460;2023-07-30T13:23:07;3.60;;;2.08;;
32501;SDS011;18952;52.516;13.460;2023-07-30T13:25:34;5.07;;;2.40;;
32501;SDS011;18952;52.516;13.460;2023-07-30T13:28:00;3.50;;;2.08;;
32501;SDS011;18952;52.516;13.460;2023-07-30T13:30:27;4.82;;;2.28;;
32501;SDS011;18952;52.516;13.460;2023-07-30T13:32:54;5.55;;;2.22;;
32501;SDS011;18952;52.516;13.460;2023-07-30T13:35:21;3.17;;;2.08;;
32501;SDS011;18952;52.516;13.460;2023-07-30T13:37:48;7.57;;;2.53;;
32501;SDS011;18952;52.516;13.460;2023-07-30T13:40:15;5.45;;;2.00;;
32501;SDS011;18952;52.516;13.460;2023-07-30T13:42:41;4.43;;;2.10;;
32501;SDS011;18952;52.516;13.460;2023-07-30T13:45:08;3.72;;;1.98;;
32501;SDS011;18952;52.516;13.460;2023-07-30T13:47:35;3.13;;;1.80;;
32501;SDS011;18952;52.516;13.460;2023-07-30T13:50:02;3.40;;;2.20;;
32501;SDS011;18952;52.516;13.460;2023-07-30T13:52:29;5.63;;;2.25;;
32501;SDS011;18952;52.516;13.460;2023-07-30T13:54:56;7.03;;;2.20;;
32501;SDS011;18952;52.516;13.460;2023-07-30T13:57:23;8.63;;;1.60;;
32501;SDS011;18952;52.516;13.460;2023-07-30T13:59:51;2.78;;;1.70;;
32501;SDS011;18952;52.516;13.460;2023-07-30T14:02:19;5.28;;;1.98;;
32501;SDS011;18952;52.516;13.460;2023-07-30T14:04:46;3.90;;;1.70;;
32501;SDS011;18952;52.516;13.460;2023-07-30T14:07:13;2.10;;;1.55;;
32501;SDS011;18952;52.516;13.460;2023-07-30T14:09:39;2.75;;;1.75;;
32501;SDS011;18952;52.516;13.460;2023-07-30T14:12:06;3.78;;;1.40;;
32501;SDS011;18952;52.516;13.460;2023-07-30T14:14:33;3.63;;;1.80;;
32501;SDS011;18952;52.516;13.460;2023-07-30T14:17:00;3.92;;;1.73;;
32501;SDS011;18952;52.516;13.460;2023-07-30T14:19:28;3.88;;;1.55;;
32501;SDS011;18952;52.516;13.460;2023-07-30T14:21:57;4.25;;;1.45;;
32501;SDS011;18952;52.516;13.460;2023-07-30T14:24:24;4.13;;;1.77;;
32501;SDS011;18952;52.516;13.460;2023-07-30T14:26:51;3.67;;;1.70;;
32501;SDS011;18952;52.516;13.460;2023-07-30T14:29:17;6.70;;;2.03;;
32501;SDS011;18952;52.516;13.460;2023-07-30T14:31:44;3.28;;;1.70;;
32501;SDS011;18952;52.516;13.460;2023-07-30T14:34:11;5.90;;;1.85;;
32501;SDS011;18952;52.516;13.460;2023-07-30T14:36:38;3.75;;;2.00;;
32501;SDS011;18952;52.516;13.460;2023-07-30T14:39:05;2.95;;;1.73;;